Time;durP1;ratioP1;P1;durP2;ratioP2;P2;SDS_P1;SDS_P2;PMS_P1;PMS_P2;Temp;Humidity;BMP_temperature;BMP_pressure;BME280_temperature;BME280_humidity;BME280_pressure;Samples;Min_cycle;Max_cycle;Signal;HPM_P1;HPM_P2
2023/09/06 00:01:33;;;;;;;1.80;1.50;;;18.50;99.90;;;;;;5095108;28;19920;-78
2023/09/06 00:03:59;;;;;;;1.60;1.50;;;18.40;99.90;;;;;;5084448;28;20063;-78
2023/09/06 00:06:24;;;;;;;;;;;18.40;99.90;;;;;;5073138;28;20035;-78
2023/09/06 00:08:50;;;;;;;1.80;1.60;;;18.50;99.90;;;;;;5100480;28;19916;-78
2023/09/06 00:11:16;;;;;;;;;;;18.40;99.90;;;;;;5057694;28;20043;-78
2023/09/06 00:13:42;;;;;;;2.13;1.92;;;18.40;99.90;;;;;;5069313;28;19919;-78
2023/09/06 00:16:07;;;;;;;;;;;18.40;99.90;;;;;;5085523;28;20039;-78
2023/09/06 00:18:33;;;;;;;2.05;1.70;;;18.40;99.90;;;;;;5102732;28;20045;-78
2023/09/06 00:20:59;;;;;;;;;;;18.40;99.90;;;;;;5072325;28;20404;-79
2023/09/06 00:23:25;;;;;;;2.42;1.98;;;18.40;99.90;;;;;;5092728;28;19921;-78
2023/09/06 00:25:54;;;;;;;1.80;1.70;;;18.30;99.90;;;;;;5086052;28;20108;-79
2023/09/06 00:28:20;;;;;;;2.05;1.70;;;18.40;99.90;;;;;;5085052;28;20048;-78
2023/09/06 00:30:46;;;;;;;1.60;1.50;;;18.30;99.90;;;;;;5068522;28;20046;-78
2023/09/06 00:33:11;;;;;;;;;;;18.30;99.90;;;;;;5066395;28;20471;-78
2023/09/06 00:35:39;;;;;;;2.17;1.90;;;18.20;99.90;;;;;;5083219;28;19945;-78
2023/09/06 00:38:05;;;;;;;2.10;1.67;;;18.30;99.90;;;;;;5077026;28;20044;-78
2023/09/06 00:40:35;;;;;;;2.17;1.88;;;18.20;99.90;;;;;;5086787;28;20792;-78
2023/09/06 00:43:02;;;;;;;1.80;1.60;;;18.20;99.90;;;;;;5083445;28;20036;-78
2023/09/06 00:45:30;;;;;;;2.60;1.70;;;18.10;99.90;;;;;;5088304;28;20044;-78
2023/09/06 00:47:58;;;;;;;2.10;1.90;;;18.10;99.90;;;;;;5090118;28;20479;-78
2023/09/06 00:50:26;;;;;;;2.30;1.92;;;18.10;99.90;;;;;;5077728;28;20429;-78
2023/09/06 00:52:52;;;;;;;2.13;1.75;;;18.10;99.90;;;;;;5089045;28;20419;-78
2023/09/06 00:55:20;;;;;;;2.10;1.80;;;18.10;99.90;;;;;;5090180;28;20043;-78
2023/09/06 00:57:46;;;;;;;1.88;1.58;;;18.10;99.90;;;;;;5088694;28;20048;-78
2023/09/06 01:00:19;;;;;;;2.20;1.50;;;18.20;99.90;;;;;;5071777;28;20043;-78
2023/09/06 01:02:48;;;;;;;2.28;2.00;;;18.20;99.90;;;;;;5083949;28;20139;-78
2023/09/06 01:05:15;;;;;;;2.63;2.10;;;18.20;99.90;;;;;;5088728;28;20501;-78
2023/09/06 01:07:51;;;;;;;3.03;2.17;;;18.20;99.90;;;;;;5085298;28;20062;-78
2023/09/06 01:10:16;;;;;;;2.03;1.83;;;18.20;99.90;;;;;;5078277;28;20032;-78
2023/09/06 01:12:42;;;;;;;;;;;18.30;99.90;;;;;;5072202;28;20036;-78
2023/09/06 01:15:10;;;;;;;2.10;1.90;;;18.20;99.90;;;;;;5088916;28;19919;-78
2023/09/06 01:17:37;;;;;;;1.88;1.67;;;18.20;99.90;;;;;;5071387;28;20123;-78
2023/09/06 01:20:17;;;;;;;2.08;1.88;;;18.20;99.90;;;;;;5088821;28;20531;-78
2023/09/06 01:23:20;;;;;;;2.05;1.85;;;18.20;99.90;;;;;;5089794;28;20102;-78
2023/09/06 01:25:46;;;;;;;2.13;1.70;;;18.20;99.90;;;;;;5091001;28;20552;-78
2023/09/06 01:28:12;;;;;;;;;;;18.20;99.90;;;;;;5110446;28;20131;-78
2023/09/06 01:30:38;;;;;;;2.20;1.65;;;18.20;99.90;;;;;;5078785;28;19922;-78
2023/09/06 01:33:03;;;;;;;;;;;18.20;99.90;;;;;;5093301;28;20044;-78
2023/09/06 01:35:29;;;;;;;2.40;1.67;;;18.20;99.90;;;;;;5109565;28;19923;-78
2023/09/06 01:37:54;;;;;;;;;;;18.30;99.90;;;;;;5067739;28;20090;-78
2023/09/06 01:40:21;;;;;;;2.17;1.88;;;18.30;99.90;;;;;;5073157;28;19930;-78
2023/09/06 01:42:47;;;;;;;2.08;1.88;;;18.30;99.90;;;;;;5091102;28;20050;-78
2023/09/06 01:45:17;;;;;;;;;;;18.30;99.90;;;;;;5090453;28;20044;-78
2023/09/06 01:47:44;;;;;;;2.13;1.80;;;18.20;99.90;;;;;;5091860;28;20258;-78
2023/09/06 01:50:11;;;;;;;2.17;1.83;;;18.20;99.90;;;;;;5090352;28;20101;-78
2023/09/06 01:52:36;;;;;;;2.17;1.98;;;18.20;99.90;;;;;;5090367;28;20108;-78
2023/09/06 01:55:04;;;;;;;;;;;18.10;99.90;;;;;;5071108;28;20479;-78
2023/09/06 01:57:30;;;;;;;2.70;1.90;;;18.10;99.90;;;;;;5097583;28;19916;-78
2023/09/06 01:59:56;;;;;;;;;;;18.00;99.90;;;;;;5092342;28;20197;-78
2023/09/06 02:02:21;;;;;;;2.30;2.00;;;18.00;99.90;;;;;;5091533;28;19924;-78
2023/09/06 02:04:47;;;;;;;;;;;17.90;99.90;;;;;;5074019;28;20067;-78
2023/09/06 02:07:14;;;;;;;2.25;2.00;;;17.90;99.90;;;;;;5096724;28;19916;-78
2023/09/06 02:09:40;;;;;;;2.40;2.20;;;17.90;99.90;;;;;;5086517;28;20570;-78
2023/09/06 02:12:06;;;;;;;;;;;17.90;99.90;;;;;;5075627;28;20054;-78
2023/09/06 02:14:32;;;;;;;2.22;1.88;;;17.80;99.90;;;;;;5092191;28;20393;-78
2023/09/06 02:16:57;;;;;;;;;;;17.80;99.90;;;;;;5092269;28;20498;-78
2023/09/06 02:19:23;;;;;;;2.45;1.75;;;17.80;99.90;;;;;;5095450;28;19917;-78
2023/09/06 02:21:49;;;;;;;;;;;17.80;99.90;;;;;;5068581;28;20044;-78
2023/09/06 02:24:14;;;;;;;1.80;1.52;;;17.80;99.90;;;;;;5091824;28;20422;-79
2023/09/06 02:26:40;;;;;;;;;;;17.80;99.90;;;;;;5075433;28;20441;-78
2023/09/06 02:29:05;;;;;;;1.50;1.40;;;17.80;99.90;;;;;;5090551;28;20285;-78
2023/09/06 02:31:31;;;;;;;;;;;17.90;99.90;;;;;;5090432;28;20359;-78
2023/09/06 02:33:57;;;;;;;1.27;1.10;;;17.90;99.90;;;;;;5089535;28;19927;-78
2023/09/06 02:36:22;;;;;;;1.40;1.25;;;18.00;99.90;;;;;;5074219;28;20039;-78
2023/09/06 02:38:48;;;;;;;;;;;18.00;99.90;;;;;;5075108;28;20054;-78
2023/09/06 02:41:14;;;;;;;1.50;1.10;;;18.00;99.90;;;;;;5091592;28;19962;-78
2023/09/06 02:43:40;;;;;;;;;;;17.90;99.90;;;;;;5091335;28;20123;-78
2023/09/06 02:46:05;;;;;;;1.50;1.40;;;18.00;99.90;;;;;;5091386;28;20001;-78
2023/09/06 02:48:33;;;;;;;;;;;17.90;99.90;;;;;;5091895;28;20619;-79
2023/09/06 02:50:59;;;;;;;1.45;1.30;;;18.00;99.90;;;;;;5091366;28;20371;-78
2023/09/06 02:53:26;;;;;;;2.05;1.58;;;17.90;99.90;;;;;;5090791;28;20044;-78
2023/09/06 02:55:53;;;;;;;2.28;1.70;;;18.00;99.90;;;;;;5091321;28;20048;-78
2023/09/06 02:58:25;;;;;;;1.90;1.50;;;18.00;99.90;;;;;;5087593;28;20043;-78
2023/09/06 03:00:57;;;;;;;1.70;1.33;;;18.00;99.90;;;;;;5073164;28;20088;-78
2023/09/06 03:03:27;;;;;;;2.42;1.40;;;18.00;99.90;;;;;;5078877;28;20131;-78
2023/09/06 03:06:00;;;;;;;1.48;1.27;;;18.00;99.90;;;;;;5070634;28;20525;-78
2023/09/06 03:08:27;;;;;;;1.25;1.10;;;18.00;99.90;;;;;;5089040;28;20040;-79
2023/09/06 03:10:53;;;;;;;1.55;1.20;;;18.00;99.90;;;;;;5084325;28;20044;-78
2023/09/06 03:13:20;;;;;;;;;;;18.00;99.90;;;;;;5073481;28;20035;-78
2023/09/06 03:15:51;;;;;;;1.30;1.17;;;17.90;99.90;;;;;;5090927;28;19916;-78
2023/09/06 03:18:19;;;;;;;2.05;1.30;;;17.90;99.90;;;;;;5061923;28;20422;-78
2023/09/06 03:20:45;;;;;;;1.65;1.20;;;17.90;99.90;;;;;;5089801;28;20079;-78
2023/09/06 03:23:17;;;;;;;;;;;17.90;99.90;;;;;;5087851;28;20071;-78
2023/09/06 03:25:54;;;;;;;1.80;1.52;;;17.80;99.90;;;;;;5083187;28;19927;-78
2023/09/06 03:28:21;;;;;;;3.40;1.83;;;17.70;99.90;;;;;;5090612;28;20139;-79
2023/09/06 03:30:50;;;;;;;2.28;1.80;;;17.70;99.90;;;;;;5082252;28;20040;-78
2023/09/06 03:33:16;;;;;;;2.03;1.80;;;17.60;99.90;;;;;;5086464;28;20737;-78
2023/09/06 03:35:45;;;;;;;4.40;2.17;;;17.50;99.90;;;;;;5073354;28;20085;-78
2023/09/06 03:38:10;;;;;;;2.30;1.77;;;17.50;99.90;;;;;;5063066;28;20052;-78
2023/09/06 03:40:36;;;;;;;;;;;17.40;99.90;;;;;;5085518;28;20047;-78
2023/09/06 03:43:05;;;;;;;1.85;1.58;;;17.30;99.90;;;;;;5073032;28;19919;-78
2023/09/06 03:45:32;;;;;;;1.80;1.40;;;17.30;99.90;;;;;;5085848;28;20081;-78
2023/09/06 03:47:58;;;;;;;1.60;1.40;;;17.20;99.90;;;;;;5048858;28;20551;-78
2023/09/06 03:50:24;;;;;;;;;;;17.20;99.90;;;;;;5087464;28;20032;-78
2023/09/06 03:52:50;;;;;;;1.70;1.42;;;17.20;99.90;;;;;;5093012;28;20556;-78
2023/09/06 03:55:17;;;;;;;1.35;1.20;;;17.20;99.90;;;;;;5086558;28;20122;-78
2023/09/06 03:57:43;;;;;;;1.25;1.10;;;17.20;99.90;;;;;;5060823;28;20036;-77
2023/09/06 04:00:31;;;;;;;1.65;1.20;;;17.20;99.90;;;;;;5093311;28;20125;-77
2023/09/06 04:02:57;;;;;;;1.38;1.25;;;17.20;99.90;;;;;;5079257;28;20047;-78
2023/09/06 04:05:26;;;;;;;1.67;1.42;;;17.20;99.90;;;;;;5071301;28;20056;-78
2023/09/06 04:07:57;;;;;;;1.95;1.30;;;17.20;99.90;;;;;;5058378;28;20434;-78
2023/09/06 04:10:24;;;;;;;1.20;1.10;;;17.20;99.90;;;;;;5088638;28;20036;-78
2023/09/06 04:12:55;;;;;;;1.20;1.00;;;17.30;99.90;;;;;;5055295;28;20113;-78
2023/09/06 04:15:21;;;;;;;1.33;1.20;;;17.20;99.90;;;;;;5074831;28;20075;-78
2023/09/06 04:17:57;;;;;;;1.60;1.50;;;17.20;99.90;;;;;;5082241;28;20046;-79
2023/09/06 04:20:30;;;;;;;1.88;1.60;;;17.20;99.90;;;;;;5082355;28;20035;-78
2023/09/06 04:22:57;;;;;;;2.85;1.75;;;17.10;99.90;;;;;;5073355;28;20052;-78
2023/09/06 04:25:26;;;;;;;4.00;1.65;;;17.10;99.90;;;;;;5075814;28;20036;-78
2023/09/06 04:27:56;;;;;;;2.35;1.70;;;17.00;99.90;;;;;;5088103;28;20055;-78
2023/09/06 04:30:28;;;;;;;1.65;1.45;;;16.90;99.90;;;;;;5082841;28;20083;-79
2023/09/06 04:32:59;;;;;;;2.00;1.52;;;16.90;99.90;;;;;;5067532;28;20043;-78
2023/09/06 04:35:39;;;;;;;1.50;1.30;;;16.80;99.90;;;;;;5078314;28;20107;-78
2023/09/06 04:38:05;;;;;;;1.50;1.20;;;16.80;99.90;;;;;;5070955;28;20040;-78
2023/09/06 04:40:30;;;;;;;;;;;16.80;99.90;;;;;;5084855;28;20044;-78
2023/09/06 04:42:56;;;;;;;1.63;1.30;;;16.90;99.90;;;;;;5085606;28;19927;-78
2023/09/06 04:45:22;;;;;;;;;;;16.90;99.90;;;;;;5078587;28;20092;-78
2023/09/06 04:47:48;;;;;;;1.33;1.23;;;16.80;99.90;;;;;;5080396;28;20020;-78
2023/09/06 04:50:13;;;;;;;;;;;16.80;99.90;;;;;;5064045;28;20040;-78
2023/09/06 04:52:47;;;;;;;1.15;0.95;;;16.80;99.90;;;;;;5069316;28;20302;-78
2023/09/06 04:55:14;;;;;;;1.88;1.35;;;16.80;99.90;;;;;;5089540;28;20039;-78
2023/09/06 04:57:45;;;;;;;1.02;0.93;;;16.80;99.90;;;;;;5083345;28;20052;-78
2023/09/06 05:00:23;;;;;;;1.40;0.90;;;16.80;99.90;;;;;;5061882;28;20048;-78
2023/09/06 05:02:51;;;;;;;1.00;0.90;;;16.80;99.90;;;;;;5077587;28;20054;-78
2023/09/06 05:05:18;;;;;;;1.45;1.10;;;16.80;99.90;;;;;;5079194;28;20088;-78
2023/09/06 05:07:45;;;;;;;1.15;1.02;;;16.80;99.90;;;;;;5065205;28;20135;-78
2023/09/06 05:10:11;;;;;;;1.10;0.90;;;16.80;99.90;;;;;;5066077;28;20033;-78
2023/09/06 05:12:37;;;;;;;1.60;1.27;;;16.90;99.90;;;;;;5087400;28;20141;-78
2023/09/06 05:15:04;;;;;;;1.00;0.90;;;16.90;99.90;;;;;;5081991;28;20072;-78
2023/09/06 05:17:30;;;;;;;1.35;1.00;;;16.90;99.90;;;;;;5085053;28;20090;-78
2023/09/06 05:20:15;;;;;;;;;;;16.90;99.90;;;;;;5081631;28;20525;-78
2023/09/06 05:22:41;;;;;;;1.48;1.30;;;16.90;99.90;;;;;;5087633;28;20264;-78
2023/09/06 05:25:07;;;;;;;;;;;16.90;99.90;;;;;;5072629;28;20181;-78
2023/09/06 05:27:32;;;;;;;1.80;1.30;;;17.00;99.90;;;;;;5066904;28;20376;-78
2023/09/06 05:29:58;;;;;;;;;;;17.00;99.90;;;;;;5083317;28;20525;-79
2023/09/06 05:32:23;;;;;;;1.48;1.20;;;17.00;99.90;;;;;;5099487;28;20325;-78
2023/09/06 05:34:49;;;;;;;1.05;0.95;;;17.10;99.90;;;;;;5087624;28;20047;-78
2023/09/06 05:37:15;;;;;;;1.10;1.00;;;17.10;99.90;;;;;;5076074;28;20074;-79
2023/09/06 05:39:40;;;;;;;1.27;1.10;;;17.10;99.90;;;;;;5068276;28;20051;-78
2023/09/06 05:42:07;;;;;;;;;;;17.20;99.90;;;;;;5083674;28;20048;-78
2023/09/06 05:44:33;;;;;;;1.10;1.00;;;17.20;99.90;;;;;;5068092;28;19923;-78
2023/09/06 05:46:58;;;;;;;1.15;1.05;;;17.20;99.90;;;;;;5087070;28;20482;-77
2023/09/06 05:49:24;;;;;;;1.00;0.90;;;17.30;99.90;;;;;;5072885;28;20048;-78
2023/09/06 05:51:50;;;;;;;1.02;0.80;;;17.30;99.90;;;;;;5079433;28;20059;-78
2023/09/06 05:54:16;;;;;;;0.85;0.70;;;17.30;99.90;;;;;;5088065;28;20123;-77
2023/09/06 05:56:42;;;;;;;1.27;0.95;;;17.40;99.90;;;;;;5054501;28;20165;-78
2023/09/06 05:59:07;;;;;;;1.20;1.05;;;17.40;99.90;;;;;;5072172;28;20126;-78
2023/09/06 06:01:33;;;;;;;0.73;0.73;;;17.50;99.90;;;;;;5088339;28;20052;-78
2023/09/06 06:03:58;;;;;;;0.80;0.70;;;17.50;99.90;;;;;;5049930;28;20044;-78
2023/09/06 06:06:26;;;;;;;;;;;17.60;99.90;;;;;;5056045;28;20051;-78
2023/09/06 06:08:53;;;;;;;0.95;0.80;;;17.70;99.90;;;;;;5071796;28;19973;-78
2023/09/06 06:11:19;;;;;;;0.70;0.70;;;17.80;99.90;;;;;;5068474;28;20483;-78
2023/09/06 06:13:45;;;;;;;1.05;0.90;;;17.90;99.90;;;;;;5081701;28;20130;-78
2023/09/06 06:16:11;;;;;;;;;;;17.90;99.90;;;;;;5075603;28;20127;-78
2023/09/06 06:18:37;;;;;;;0.95;0.70;;;17.90;99.90;;;;;;5092481;28;19915;-78
2023/09/06 06:21:03;;;;;;;;;;;18.00;99.90;;;;;;5078783;28;20128;-78
2023/09/06 06:23:29;;;;;;;0.82;0.80;;;18.00;99.90;;;;;;5077556;28;19920;-78
2023/09/06 06:25:55;;;;;;;;;;;18.10;99.90;;;;;;5075484;28;20044;-78
2023/09/06 06:28:21;;;;;;;0.88;0.60;;;18.20;99.90;;;;;;5091805;28;19920;-78
2023/09/06 06:30:46;;;;;;;;;;;18.30;99.90;;;;;;5092249;28;20068;-78
2023/09/06 06:33:13;;;;;;;0.80;0.77;;;18.40;99.90;;;;;;5104805;28;19920;-78
2023/09/06 06:35:39;;;;;;;1.58;1.20;;;18.60;99.90;;;;;;5091680;28;20048;-78
2023/09/06 06:38:04;;;;;;;;;;;19.00;99.90;;;;;;5092064;28;20048;-78
2023/09/06 06:40:35;;;;;;;0.90;0.80;;;19.70;99.90;;;;;;5106720;28;19920;-78
2023/09/06 06:43:01;;;;;;;0.82;0.70;;;20.30;99.90;;;;;;5079969;28;20421;-78
2023/09/06 06:45:26;;;;;;;0.80;0.70;;;20.90;99.90;;;;;;5091430;28;20047;-79
2023/09/06 06:47:52;;;;;;;1.20;1.00;;;21.30;99.90;;;;;;5091718;28;20953;-78
2023/09/06 06:50:19;;;;;;;1.58;0.93;;;21.70;99.90;;;;;;5074687;28;20449;-78
2023/09/06 06:52:46;;;;;;;1.20;1.00;;;22.00;99.90;;;;;;5077145;28;20079;-78
2023/09/06 06:55:11;;;;;;;1.17;0.95;;;22.30;99.90;;;;;;5091307;28;20048;-78
2023/09/06 06:57:37;;;;;;;1.27;1.02;;;22.60;99.90;;;;;;5040890;28;20044;-78
2023/09/06 07:00:10;;;;;;;1.27;1.13;;;22.80;65.30;;;;;;5091112;28;20051;-78
2023/09/06 07:02:37;;;;;;;1.13;1.02;;;23.00;99.90;;;;;;5090743;28;20458;-78
2023/09/06 07:05:03;;;;;;;1.08;0.93;;;23.10;99.90;;;;;;5107778;28;20053;-78
2023/09/06 07:07:29;;;;;;;1.73;1.00;;;23.30;99.90;;;;;;5077256;28;20170;-78
2023/09/06 07:09:55;;;;;;;1.80;0.95;;;23.40;99.90;;;;;;5091084;28;20498;-78
2023/09/06 07:12:20;;;;;;;1.20;1.00;;;23.50;1.00;;;;;;5062205;28;20040;-78
2023/09/06 07:14:46;;;;;;;1.48;0.98;;;23.60;1.00;;;;;;5057802;28;20051;-78
2023/09/06 07:17:12;;;;;;;1.30;1.00;;;23.80;1.00;;;;;;5091091;28;20147;-79
2023/09/06 07:19:37;;;;;;;1.45;1.00;;;23.90;1.00;;;;;;5072124;28;20472;-78
2023/09/06 07:22:04;;;;;;;1.10;1.00;;;23.90;99.90;;;;;;5062138;28;20055;-78
2023/09/06 07:24:29;;;;;;;0.77;0.77;;;24.10;99.90;;;;;;5057233;28;20127;-78
2023/09/06 07:26:55;;;;;;;0.93;0.90;;;24.20;99.90;;;;;;5076495;28;20106;-78
2023/09/06 07:29:22;;;;;;;1.50;1.00;;;24.20;79.70;;;;;;5090605;28;20370;-78
2023/09/06 07:31:49;;;;;;;1.27;0.85;;;24.30;99.90;;;;;;5073717;28;20046;-78
2023/09/06 07:34:14;;;;;;;1.23;0.98;;;24.40;99.90;;;;;;5074043;28;20430;-78
2023/09/06 07:36:40;;;;;;;0.80;0.75;;;24.50;99.90;;;;;;5090414;28;20455;-78
2023/09/06 07:39:07;;;;;;;1.13;1.02;;;24.60;99.50;;;;;;5069608;28;20032;-78
2023/09/06 07:41:34;;;;;;;1.10;0.90;;;24.70;96.20;;;;;;5064314;28;20044;-79
2023/09/06 07:44:00;;;;;;;1.00;0.90;;;24.70;86.10;;;;;;5073293;28;20051;-79
2023/09/06 07:46:28;;;;;;;1.10;1.00;;;24.70;1.00;;;;;;5107349;28;20032;-79
2023/09/06 07:48:54;;;;;;;1.20;0.80;;;24.70;1.00;;;;;;5089294;28;20495;-79
2023/09/06 07:51:20;;;;;;;1.63;0.90;;;24.80;94.20;;;;;;5053622;28;20051;-79
2023/09/06 07:53:46;;;;;;;1.50;0.95;;;24.90;99.90;;;;;;5083064;28;20491;-79
2023/09/06 07:56:11;;;;;;;0.80;0.70;;;24.90;1.00;;;;;;5090285;28;20088;-79
2023/09/06 07:58:37;;;;;;;1.13;0.73;;;25.00;84.80;;;;;;5090127;28;20059;-79
2023/09/06 08:01:04;;;;;;;1.23;1.10;;;25.00;1.00;;;;;;5056084;28;20039;-79
2023/09/06 08:03:30;;;;;;;1.10;0.82;;;25.10;9.90;;;;;;5053176;28;20045;-79
2023/09/06 08:05:55;;;;;;;0.68;0.68;;;25.10;99.90;;;;;;5084901;28;20059;-79
2023/09/06 08:08:21;;;;;;;0.88;0.80;;;25.10;1.00;;;;;;5089987;28;20051;-79
2023/09/06 08:10:47;;;;;;;0.80;0.75;;;25.20;1.00;;;;;;5090119;28;20044;-79
2023/09/06 08:13:13;;;;;;;1.23;0.80;;;25.40;1.00;;;;;;5058900;28;20495;-79
2023/09/06 08:15:39;;;;;;;0.80;0.80;;;25.40;1.00;;;;;;5089899;28;20079;-79
2023/09/06 08:18:05;;;;;;;1.25;0.90;;;25.60;1.00;;;;;;5089945;28;20111;-79
2023/09/06 08:20:31;;;;;;;1.00;0.80;;;25.60;99.90;;;;;;5073154;28;20455;-79
2023/09/06 08:22:58;;;;;;;1.50;0.98;;;25.70;99.90;;;;;;5072892;28;20051;-79
2023/09/06 08:25:23;;;;;;;1.15;0.95;;;25.80;1.00;;;;;;5065590;28;20040;-79
2023/09/06 08:27:51;;;;;;;0.80;0.80;;;25.80;99.90;;;;;;5082795;28;20509;-78
2023/09/06 08:30:18;;;;;;;1.00;0.90;;;26.00;1.00;;;;;;5083691;28;20075;-79
2023/09/06 08:32:46;;;;;;;0.90;0.70;;;26.10;99.90;;;;;;5078928;28;20044;-78
2023/09/06 08:35:12;;;;;;;2.58;0.98;;;26.30;99.90;;;;;;5058475;28;20049;-78
2023/09/06 08:37:38;;;;;;;1.00;0.80;;;26.30;99.90;;;;;;5089430;28;20509;-79
2023/09/06 08:40:07;;;;;;;0.98;0.80;;;26.40;99.90;;;;;;5089533;28;20036;-79
2023/09/06 08:42:34;;;;;;;0.60;0.60;;;26.60;99.90;;;;;;5058891;28;20052;-78
2023/09/06 08:45:01;;;;;;;0.52;0.52;;;26.70;99.90;;;;;;5089064;28;20040;-78
2023/09/06 08:47:28;;;;;;;0.70;0.60;;;26.90;99.90;;;;;;5076574;28;20032;-79
2023/09/06 08:49:54;;;;;;;0.68;0.57;;;27.00;99.90;;;;;;5079806;28;20040;-79
2023/09/06 08:52:20;;;;;;;1.17;0.80;;;27.10;99.90;;;;;;5082525;28;20051;-79
2023/09/06 08:54:48;;;;;;;1.65;0.88;;;27.20;98.30;;;;;;5072394;28;20043;-79
2023/09/06 08:57:14;;;;;;;1.25;0.90;;;27.40;48.20;;;;;;5072182;28;20044;-79
2023/09/06 08:59:41;;;;;;;1.00;0.70;;;27.40;1.00;;;;;;5066562;28;20546;-79
2023/09/06 09:02:12;;;;;;;0.73;0.70;;;27.50;99.90;;;;;;5063974;28;20043;-79
2023/09/06 09:04:42;;;;;;;0.93;0.73;;;27.50;99.90;;;;;;5088866;28;20063;-79
2023/09/06 09:07:13;;;;;;;0.88;0.73;;;27.60;99.90;;;;;;5089492;28;20426;-79
2023/09/06 09:10:03;;;;;;;0.63;0.63;;;27.80;99.90;;;;;;5089220;28;20040;-79
2023/09/06 09:12:30;;;;;;;0.98;0.82;;;27.80;99.90;;;;;;5089246;28;20407;-79
2023/09/06 09:14:57;;;;;;;1.40;0.80;;;27.80;99.90;;;;;;5072543;28;20189;-80
2023/09/06 09:17:24;;;;;;;1.50;0.80;;;27.80;99.90;;;;;;5089057;28;20052;-80
2023/09/06 09:20:00;;;;;;;1.17;0.70;;;27.80;99.90;;;;;;5089309;28;20040;-80
2023/09/06 09:22:28;;;;;;;1.00;0.80;;;27.90;99.90;;;;;;5055519;28;20040;-79
2023/09/06 09:24:58;;;;;;;1.08;0.70;;;28.00;99.90;;;;;;5071310;28;20037;-79
2023/09/06 09:27:28;;;;;;;0.88;0.70;;;28.10;99.90;;;;;;5078734;28;20051;-79
2023/09/06 09:30:00;;;;;;;0.77;0.77;;;28.20;99.90;;;;;;5088894;28;20048;-79
2023/09/06 09:32:26;;;;;;;1.23;1.00;;;28.40;99.90;;;;;;5088862;28;20436;-79
2023/09/06 09:34:54;;;;;;;0.90;0.73;;;28.40;89.70;;;;;;5089087;28;20070;-79
2023/09/06 09:37:21;;;;;;;1.60;0.77;;;28.40;78.40;;;;;;5071866;28;20051;-79
2023/09/06 09:39:47;;;;;;;0.80;0.70;;;28.50;79.30;;;;;;5078937;28;20059;-79
2023/09/06 09:42:13;;;;;;;1.00;0.82;;;28.60;93.80;;;;;;5067804;28;20083;-79
2023/09/06 09:44:40;;;;;;;1.15;0.70;;;28.60;1.00;;;;;;5088759;28;20080;-79
2023/09/06 09:47:13;;;;;;;0.50;0.50;;;28.60;8.40;;;;;;5090472;28;20047;-79
2023/09/06 09:49:41;;;;;;;1.40;0.88;;;28.80;45.70;;;;;;5092857;28;20047;-79
2023/09/06 09:52:13;;;;;;;1.85;0.60;;;28.80;1.00;;;;;;5092554;28;20040;-80
2023/09/06 09:54:45;;;;;;;2.58;0.73;;;28.80;99.90;;;;;;5069518;28;20101;-79
2023/09/06 09:57:12;;;;;;;0.93;0.80;;;28.90;99.90;;;;;;5069058;28;20542;-80
2023/09/06 09:59:38;;;;;;;0.88;0.63;;;28.80;99.90;;;;;;5080794;28;20043;-79
2023/09/06 10:02:06;;;;;;;0.70;0.68;;;28.80;99.90;;;;;;5075306;28;20050;-79
2023/09/06 10:04:42;;;;;;;0.60;0.60;;;28.80;99.90;;;;;;5077773;28;20056;-79
2023/09/06 10:07:09;;;;;;;0.65;0.60;;;29.00;99.90;;;;;;5092251;28;20435;-79
2023/09/06 10:09:38;;;;;;;0.95;0.70;;;29.00;99.90;;;;;;5089332;28;20070;-79
2023/09/06 10:12:07;;;;;;;1.00;0.90;;;29.00;99.90;;;;;;5081772;28;20035;-79
2023/09/06 10:14:33;;;;;;;1.52;0.90;;;29.10;99.90;;;;;;5075237;28;20040;-79
2023/09/06 10:17:01;;;;;;;1.00;0.80;;;29.20;99.90;;;;;;5075413;28;20172;-79
2023/09/06 10:19:27;;;;;;;1.02;0.85;;;29.20;99.90;;;;;;5058583;28;20052;-79
2023/09/06 10:21:53;;;;;;;1.00;0.90;;;29.20;99.90;;;;;;5078369;28;20059;-80
2023/09/06 10:24:22;;;;;;;0.82;0.80;;;29.20;92.60;;;;;;5079377;28;20036;-80
2023/09/06 10:26:53;;;;;;;0.90;0.70;;;29.10;92.00;;;;;;5060332;28;20438;-79
2023/09/06 10:29:23;;;;;;;1.10;0.80;;;29.20;99.90;;;;;;5080190;28;20055;-79
2023/09/06 10:31:51;;;;;;;1.50;1.02;;;29.30;99.90;;;;;;5076062;28;20093;-79
2023/09/06 10:34:18;;;;;;;1.05;0.80;;;29.50;99.90;;;;;;5074843;28;20442;-80
2023/09/06 10:36:58;;;;;;;0.57;0.57;;;29.50;88.90;;;;;;5091698;28;20044;-80
2023/09/06 10:39:28;;;;;;;0.60;0.60;;;29.60;97.70;;;;;;5055334;28;20040;-80
2023/09/06 10:42:11;;;;;;;0.77;0.60;;;29.70;99.90;;;;;;5068151;28;20123;-79
2023/09/06 10:44:58;;;;;;;1.33;0.80;;;29.80;85.10;;;;;;5091784;28;20447;-80
2023/09/06 10:47:29;;;;;;;1.20;0.88;;;30.00;83.50;;;;;;5084947;28;20056;-79
2023/09/06 10:50:16;;;;;;;0.80;0.75;;;30.00;1.00;;;;;;5074723;28;20052;-80
2023/09/06 10:52:49;;;;;;;1.00;0.80;;;30.10;31.30;;;;;;5091430;28;20044;-79
2023/09/06 10:55:18;;;;;;;0.80;0.75;;;30.10;1.00;;;;;;5091614;28;20044;-80
2023/09/06 10:57:59;;;;;;;0.70;0.70;;;30.20;62.90;;;;;;5090975;28;20123;-80
2023/09/06 11:00:30;;;;;;;0.68;0.68;;;30.20;1.00;;;;;;5091649;28;20039;-80
2023/09/06 11:03:08;;;;;;;2.20;0.80;;;30.40;33.70;;;;;;5076541;28;20040;-80
2023/09/06 11:05:37;;;;;;;0.80;0.70;;;30.40;1.00;;;;;;5090957;28;20056;-79
2023/09/06 11:08:04;;;;;;;0.82;0.73;;;30.50;66.70;;;;;;5055448;28;20043;-80
2023/09/06 11:10:30;;;;;;;0.80;0.70;;;30.70;8.70;;;;;;5082189;28;20048;-80
2023/09/06 11:12:57;;;;;;;1.00;0.70;;;30.70;1.00;;;;;;5091097;28;20076;-80
2023/09/06 11:15:24;;;;;;;0.90;0.70;;;30.70;99.90;;;;;;5092563;28;20044;-80
2023/09/06 11:17:52;;;;;;;0.70;0.63;;;30.70;99.90;;;;;;5089906;28;20058;-79
2023/09/06 11:20:18;;;;;;;0.90;0.80;;;30.80;99.90;;;;;;5054262;28;20044;-79
2023/09/06 11:22:50;;;;;;;0.77;0.70;;;30.90;99.90;;;;;;5072328;28;20045;-79
2023/09/06 11:25:21;;;;;;;1.00;0.70;;;31.10;99.90;;;;;;5077178;28;20040;-79
2023/09/06 11:27:48;;;;;;;1.02;0.70;;;31.40;99.90;;;;;;5090983;28;20050;-80
2023/09/06 11:30:21;;;;;;;1.35;0.80;;;31.40;99.90;;;;;;5076850;28;20066;-80
2023/09/06 11:32:51;;;;;;;0.80;0.70;;;31.50;99.90;;;;;;5091029;28;20032;-79
2023/09/06 11:35:34;;;;;;;0.80;0.80;;;31.40;99.90;;;;;;5072916;28;20051;-80
2023/09/06 11:38:02;;;;;;;1.50;0.60;;;31.30;99.90;;;;;;5079872;28;20048;-79
2023/09/06 11:40:31;;;;;;;1.05;0.82;;;31.40;99.90;;;;;;5090804;28;20131;-79
2023/09/06 11:43:10;;;;;;;0.90;0.80;;;31.30;99.90;;;;;;5090615;28;20044;-79
2023/09/06 11:45:36;;;;;;;0.70;0.68;;;31.20;99.90;;;;;;5088831;28;20171;-79
2023/09/06 11:48:08;;;;;;;0.80;0.80;;;31.20;99.90;;;;;;5045059;28;20043;-79
2023/09/06 11:50:42;;;;;;;0.70;0.63;;;31.40;99.90;;;;;;5073017;28;20120;-79
2023/09/06 11:53:13;;;;;;;0.83;0.80;;;31.50;99.90;;;;;;5077035;28;20036;-79
2023/09/06 11:55:42;;;;;;;0.75;0.68;;;31.80;99.90;;;;;;5107666;28;20508;-79
2023/09/06 11:58:20;;;;;;;0.80;0.80;;;31.70;99.90;;;;;;5090765;28;20036;-80
2023/09/06 12:00:48;;;;;;;1.10;0.77;;;31.70;99.90;;;;;;5059911;28;20056;-79
2023/09/06 12:03:20;;;;;;;1.40;1.00;;;31.60;99.90;;;;;;5090206;28;20123;-80
2023/09/06 12:05:53;;;;;;;1.20;0.70;;;31.60;99.90;;;;;;5059818;28;20056;-79
2023/09/06 12:08:23;;;;;;;1.00;0.80;;;31.60;99.90;;;;;;5076793;28;20028;-79
2023/09/06 12:11:05;;;;;;;1.05;0.85;;;31.60;99.90;;;;;;5059528;28;20399;-79
2023/09/06 12:13:34;;;;;;;0.82;0.70;;;31.70;99.90;;;;;;5095018;28;20048;-79
2023/09/06 12:16:01;;;;;;;1.42;0.70;;;31.70;99.90;;;;;;5107355;28;20047;-79
2023/09/06 12:18:28;;;;;;;0.90;0.63;;;31.70;99.90;;;;;;5069608;28;20404;-79
2023/09/06 12:20:58;;;;;;;1.02;0.70;;;31.90;99.90;;;;;;5069892;28;20048;-79
2023/09/06 12:23:28;;;;;;;0.98;0.80;;;32.00;99.90;;;;;;5057417;28;20534;-79
2023/09/06 12:25:55;;;;;;;1.00;0.70;;;32.10;99.90;;;;;;5095260;28;20123;-79
2023/09/06 12:28:21;;;;;;;0.60;0.60;;;32.00;99.90;;;;;;5080772;28;20086;-80
2023/09/06 12:30:48;;;;;;;0.77;0.70;;;32.00;99.90;;;;;;5081365;28;20036;-80
2023/09/06 12:33:14;;;;;;;0.88;0.70;;;32.00;99.90;;;;;;5086046;28;20498;-80
2023/09/06 12:35:40;;;;;;;0.82;0.60;;;32.10;99.90;;;;;;5076912;28;20058;-79
2023/09/06 12:38:06;;;;;;;0.73;0.70;;;32.20;99.90;;;;;;5067452;28;20043;-80
2023/09/06 12:40:33;;;;;;;1.85;0.63;;;32.30;99.90;;;;;;5053746;28;20040;-80
2023/09/06 12:42:59;;;;;;;0.93;0.55;;;32.40;99.90;;;;;;5073646;28;20398;-80
2023/09/06 12:45:30;;;;;;;0.77;0.70;;;32.20;99.90;;;;;;5053060;28;20032;-80
2023/09/06 12:48:00;;;;;;;0.80;0.70;;;32.30;99.90;;;;;;5086366;28;20075;-80
2023/09/06 12:50:27;;;;;;;0.60;0.60;;;32.40;99.90;;;;;;5065340;28;20483;-80
2023/09/06 12:52:54;;;;;;;0.80;0.50;;;32.40;99.90;;;;;;5068683;28;20044;-81
2023/09/06 12:55:20;;;;;;;0.98;0.80;;;32.50;99.90;;;;;;5084149;28;20044;-79
2023/09/06 12:57:46;;;;;;;0.63;0.63;;;32.40;99.90;;;;;;5083795;28;20043;-80
2023/09/06 13:00:13;;;;;;;0.88;0.50;;;32.50;99.90;;;;;;5070899;28;20471;-79
2023/09/06 13:02:40;;;;;;;0.63;0.60;;;32.60;99.90;;;;;;5065757;28;20093;-80